Gelantipy, Australia
Current Conditions -  °F | °C
As of 8:00 PM on Friday 31 Oct 2014 (Local Time) from YCOM Reporting Station
Scattered Clouds Scattered Clouds  
Wind Chill: 63°   Ceiling: Unl
Heat Index: 63°   Visibility: 6mi
Dew Point: 39°   Wind: 5mph
Humidity: 42%   Direction: 350°N
Pressure: 29.8"   Gusts: NA
Location:  37.22°S, 148.26°E
Report Text: YCOM 310900Z AUTO 35004KT 9999 // SCT125 17/04 Q1009
Loading
Personal Weather Stations






























Interactive Weather Map
Tropical Storm Tracking
New forecast layout! Learn more

10-Day Weather Forecast

Advertisements
Track Severe Weather on mobile